Řízení letového provozu České republiky  
Aktualizace dat:  30.05.2020 02:59:20 UTC English version
   METEO Zobrazení stránky:  30.05.2020 03:00:30 UTC  
vysvětlivky
METAR EDDB 300250Z 03005KT CAVOK 08/03 Q1026 NOSIG=
METAR EDDC 300250Z 01004KT CAVOK 08/05 Q1024=
METAR EDDE 300250Z 36005KT CAVOK 09/04 Q1025=
METAR EDDF 300250Z 02010KT CAVOK 13/03 Q1023 NOSIG=
METAR EDDM 300250Z 05004KT CAVOK 05/04 Q1021 NOSIG=
METAR EDDN 300250Z VRB02KT CAVOK 09/05 Q1023=
METAR EDDP 300250Z 01006KT CAVOK 07/05 Q1025 NOSIG=
METAR EDDT 300250Z 02003KT 340V090 CAVOK 09/05 Q1026 NOSIG=
METAR EDQM NIL
METAR EPBY 300230Z 34005KT CAVOK 06/03 Q1023=
METAR EPGD 300230Z 36008KT 9999 FEW010 07/06 Q1024=
METAR EPKK 300230Z 24006KT 9999 BKN060 08/04 Q1019=
METAR EPKT 300230Z 30004KT CAVOK 06/02 Q1019=
METAR EPLL 300230Z 32006KT 280V350 CAVOK 07/05 Q1020=
METAR EPPO 300230Z 35004KT CAVOK 06/03 Q1023=
METAR EPRZ 300230Z 28008KT CAVOK 10/05 Q1016=
METAR EPWA 300230Z 34009KT CAVOK 10/05 Q1018 NOSIG=
METAR EPWR 300230Z 31007KT CAVOK 03/01 Q1023=
METAR LHBP 300230Z 35007KT CAVOK 12/07 Q1017 NOSIG=
METAR LHSM 300215Z AUTO 34011KT 9000 NSC 11/08 Q1019=
METAR LKBC 300300Z AUTO 00000KT 9999 OVC080 09/05 Q1021=
METAR LKCV 300230Z 32005KT CAVOK 11/07 Q1021 NOSIG RMK BLU BLU=
METAR LKKB 300230Z 32004KT CAVOK 11/05 Q1022 NOSIG RMK BLU=
METAR LKKU NIL
METAR LKKV 300200Z 29003KT 270V330 CAVOK 08/04 Q1023 RMK REG QNH 1018=
METAR LKLN 300300Z AUTO 00000KT 9999 BKN082 OVC099 09/06 Q1022=
METAR LKMT 300230Z 19003KT CAVOK 04/02 Q1021 NOSIG RMK REG QNH 1018=
METAR LKNA 300230Z 35004KT CAVOK 09/04 Q1021 RMK BLU=
METAR LKPD 300230Z 06004KT CAVOK 12/04 Q1021 RMK BLU=
METAR LKPJ 300230Z AUTO 35005KT 9999 BKN080 09/03 Q1021=
METAR LKPR 300230Z 32006KT CAVOK 08/05 Q1022 NOSIG RMK REG QNH 1018=
METAR LKTB 300230Z 34005KT CAVOK 11/03 Q1020 NOSIG RMK REG QNH 1018=
METAR LKVO NIL
METAR LOWI 300250Z AUTO VRB01KT 9999 FEW024 BKN026 07/05 Q1021=
METAR LOWL 300250Z AUTO 32005KT 0500 R26/0600N FG FEW000 BKN001 08/08 Q1022=
METAR LOWS 300250Z AUTO 26002KT 9999 FEW000 BKN080 05/05 Q1021=
METAR LOWW 300250Z 30006KT CAVOK 10/07 Q1020 NOSIG=
METAR LZIB 300230Z VRB01KT CAVOK 10/02 Q1019=
METAR LZKZ 300230Z 36005KT CAVOK 11/02 Q1016=
METAR LZMC NIL
METAR LZPP 300230Z AUTO 35004KT 340V050 9999 BKN130/// 06/04 Q1019=
METAR LZSL 300230Z VRB01KT CAVOK 05/03 Q1018=
METAR LZTT 300230Z 27006KT 9999 SCT060 04/02 Q1017=
SPECI LZZI 300240Z 13003KT 5000 BR SCT001 BKN054 05/04 Q1019=